sensor_id;sensor_type;location;lat;lon;timestamp;P1;P2;P0
61913;PMS5003;50095;53.336;-1.488;2022-10-03T00:00:01;2;2;
61913;PMS5003;50095;53.336;-1.488;2022-10-03T00:03:42;1;1;
61913;PMS5003;50095;53.336;-1.488;2022-10-03T00:06:24;3;3;
61913;PMS5003;50095;53.336;-1.488;2022-10-03T00:09:08;2;2;
61913;PMS5003;50095;53.336;-1.488;2022-10-03T00:11:52;3;3;
61913;PMS5003;50095;53.336;-1.488;2022-10-03T00:14:32;3;3;
61913;PMS5003;50095;53.336;-1.488;2022-10-03T00:17:08;3;3;
61913;PMS5003;50095;53.336;-1.488;2022-10-03T00:19:44;5;3;
61913;PMS5003;50095;53.336;-1.488;2022-10-03T00:22:24;3;3;
61913;PMS5003;50095;53.336;-1.488;2022-10-03T00:25:02;3;2;
61913;PMS5003;50095;53.336;-1.488;2022-10-03T00:27:40;3;3;
61913;PMS5003;50095;53.336;-1.488;2022-10-03T00:30:14;4;3;
61913;PMS5003;50095;53.336;-1.488;2022-10-03T00:32:56;3;3;
61913;PMS5003;50095;53.336;-1.488;2022-10-03T00:35:41;2;2;
61913;PMS5003;50095;53.336;-1.488;2022-10-03T00:38:23;2;2;
61913;PMS5003;50095;53.336;-1.488;2022-10-03T00:41:49;5;5;
61913;PMS5003;50095;53.336;-1.488;2022-10-03T00:44:42;4;4;
61913;PMS5003;50095;53.336;-1.488;2022-10-03T00:48:23;2;1;
61913;PMS5003;50095;53.336;-1.488;2022-10-03T00:51:11;1;1;
61913;PMS5003;50095;53.336;-1.488;2022-10-03T00:53:51;2;2;
61913;PMS5003;50095;53.336;-1.488;2022-10-03T00:56:37;2;2;
61913;PMS5003;50095;53.336;-1.488;2022-10-03T00:59:22;3;3;
61913;PMS5003;50095;53.336;-1.488;2022-10-03T01:01:58;3;2;
61913;PMS5003;50095;53.336;-1.488;2022-10-03T01:04:47;2;2;
61913;PMS5003;50095;53.336;-1.488;2022-10-03T01:10:21;2;2;
61913;PMS5003;50095;53.336;-1.488;2022-10-03T01:13:02;1;1;
61913;PMS5003;50095;53.336;-1.488;2022-10-03T01:15:44;4;4;
61913;PMS5003;50095;53.336;-1.488;2022-10-03T01:18:20;1;1;
61913;PMS5003;50095;53.336;-1.488;2022-10-03T01:21:01;3;3;
61913;PMS5003;50095;53.336;-1.488;2022-10-03T01:23:46;1;1;
61913;PMS5003;50095;53.336;-1.488;2022-10-03T01:26:46;4;3;
61913;PMS5003;50095;53.336;-1.488;2022-10-03T01:29:22;2;2;
61913;PMS5003;50095;53.336;-1.488;2022-10-03T01:32:00;2;2;
61913;PMS5003;50095;53.336;-1.488;2022-10-03T01:34:34;1;1;
61913;PMS5003;50095;53.336;-1.488;2022-10-03T01:37:09;1;1;
61913;PMS5003;50095;53.336;-1.488;2022-10-03T01:39:46;2;2;
61913;PMS5003;50095;53.336;-1.488;2022-10-03T01:42:30;3;3;
61913;PMS5003;50095;53.336;-1.488;2022-10-03T01:45:07;2;2;
61913;PMS5003;50095;53.336;-1.488;2022-10-03T01:47:43;3;3;
61913;PMS5003;50095;53.336;-1.488;2022-10-03T01:50:18;3;3;
61913;PMS5003;50095;53.336;-1.488;2022-10-03T01:52:55;2;2;
61913;PMS5003;50095;53.336;-1.488;2022-10-03T01:55:36;2;2;
61913;PMS5003;50095;53.336;-1.488;2022-10-03T01:58:18;2;2;
61913;PMS5003;50095;53.336;-1.488;2022-10-03T02:00:55;2;2;
61913;PMS5003;50095;53.336;-1.488;2022-10-03T02:03:31;1;1;
61913;PMS5003;50095;53.336;-1.488;2022-10-03T02:06:05;2;2;
61913;PMS5003;50095;53.336;-1.488;2022-10-03T02:08:48;3;3;
61913;PMS5003;50095;53.336;-1.488;2022-10-03T02:11:25;1;1;
61913;PMS5003;50095;53.336;-1.488;2022-10-03T02:13:58;1;1;
61913;PMS5003;50095;53.336;-1.488;2022-10-03T02:16:42;1;1;
61913;PMS5003;50095;53.336;-1.488;2022-10-03T02:19:12;2;2;
61913;PMS5003;50095;53.336;-1.488;2022-10-03T02:21:47;4;2;
61913;PMS5003;50095;53.336;-1.488;2022-10-03T02:24:21;2;2;
61913;PMS5003;50095;53.336;-1.488;2022-10-03T02:27:39;1;1;
61913;PMS5003;50095;53.336;-1.488;2022-10-03T02:30:30;2;2;
61913;PMS5003;50095;53.336;-1.488;2022-10-03T02:33:23;1;1;
61913;PMS5003;50095;53.336;-1.488;2022-10-03T02:36:33;2;2;
61913;PMS5003;50095;53.336;-1.488;2022-10-03T02:39:19;2;2;
61913;PMS5003;50095;53.336;-1.488;2022-10-03T02:43:20;1;1;
61913;PMS5003;50095;53.336;-1.488;2022-10-03T02:46:12;2;2;
61913;PMS5003;50095;53.336;-1.488;2022-10-03T02:49:03;1;1;
61913;PMS5003;50095;53.336;-1.488;2022-10-03T02:54:21;2;2;
61913;PMS5003;50095;53.336;-1.488;2022-10-03T02:57:12;2;2;
61913;PMS5003;50095;53.336;-1.488;2022-10-03T02:59:39;2;2;
61913;PMS5003;50095;53.336;-1.488;2022-10-03T03:02:38;1;1;
61913;PMS5003;50095;53.336;-1.488;2022-10-03T03:03:37;1;1;
61913;PMS5003;50095;53.336;-1.488;2022-10-03T03:06:53;1;1;
61913;PMS5003;50095;53.336;-1.488;2022-10-03T03:09:43;1;1;
61913;PMS5003;50095;53.336;-1.488;2022-10-03T03:12:44;1;1;
61913;PMS5003;50095;53.336;-1.488;2022-10-03T03:15:36;1;1;
61913;PMS5003;50095;53.336;-1.488;2022-10-03T03:18:29;3;3;
61913;PMS5003;50095;53.336;-1.488;2022-10-03T03:21:05;2;2;
61913;PMS5003;50095;53.336;-1.488;2022-10-03T03:23:48;1;1;
61913;PMS5003;50095;53.336;-1.488;2022-10-03T03:27:39;1;1;
61913;PMS5003;50095;53.336;-1.488;2022-10-03T03:30:17;2;2;
61913;PMS5003;50095;53.336;-1.488;2022-10-03T03:32:51;5;4;
61913;PMS5003;50095;53.336;-1.488;2022-10-03T03:35:31;1;1;
61913;PMS5003;50095;53.336;-1.488;2022-10-03T03:38:08;3;2;
61913;PMS5003;50095;53.336;-1.488;2022-10-03T03:40:50;2;2;
61913;PMS5003;50095;53.336;-1.488;2022-10-03T03:43:37;1;1;
61913;PMS5003;50095;53.336;-1.488;2022-10-03T03:46:20;2;2;
61913;PMS5003;50095;53.336;-1.488;2022-10-03T03:48:59;2;2;
61913;PMS5003;50095;53.336;-1.488;2022-10-03T03:51:41;2;2;
61913;PMS5003;50095;53.336;-1.488;2022-10-03T03:54:26;3;3;
61913;PMS5003;50095;53.336;-1.488;2022-10-03T03:57:24;5;5;
61913;PMS5003;50095;53.336;-1.488;2022-10-03T04:00:07;2;1;
61913;PMS5003;50095;53.336;-1.488;2022-10-03T04:02:46;2;2;
61913;PMS5003;50095;53.336;-1.488;2022-10-03T04:05:26;2;2;
61913;PMS5003;50095;53.336;-1.488;2022-10-03T04:08:12;2;2;
61913;PMS5003;50095;53.336;-1.488;2022-10-03T04:10:55;3;2;
61913;PMS5003;50095;53.336;-1.488;2022-10-03T04:13:38;0;0;
61913;PMS5003;50095;53.336;-1.488;2022-10-03T04:16:29;1;1;
61913;PMS5003;50095;53.336;-1.488;2022-10-03T04:19:10;1;1;
61913;PMS5003;50095;53.336;-1.488;2022-10-03T04:21:51;2;2;
61913;PMS5003;50095;53.336;-1.488;2022-10-03T04:24:35;1;1;
61913;PMS5003;50095;53.336;-1.488;2022-10-03T04:27:20;2;2;
61913;PMS5003;50095;53.336;-1.488;2022-10-03T04:29:59;2;2;
61913;PMS5003;50095;53.336;-1.488;2022-10-03T04:32:54;2;2;
61913;PMS5003;50095;53.336;-1.488;2022-10-03T04:35:41;2;2;
61913;PMS5003;50095;53.336;-1.488;2022-10-03T04:38:24;1;1;
61913;PMS5003;50095;53.336;-1.488;2022-10-03T04:41:11;1;1;
61913;PMS5003;50095;53.336;-1.488;2022-10-03T04:43:51;1;1;
61913;PMS5003;50095;53.336;-1.488;2022-10-03T04:46:29;1;1;
61913;PMS5003;50095;53.336;-1.488;2022-10-03T04:49:05;2;2;
61913;PMS5003;50095;53.336;-1.488;2022-10-03T04:51:43;2;2;
61913;PMS5003;50095;53.336;-1.488;2022-10-03T04:54:22;1;1;
61913;PMS5003;50095;53.336;-1.488;2022-10-03T04:56:59;3;2;
61913;PMS5003;50095;53.336;-1.488;2022-10-03T04:59:35;2;2;
61913;PMS5003;50095;53.336;-1.488;2022-10-03T05:02:10;4;2;
61913;PMS5003;50095;53.336;-1.488;2022-10-03T05:04:53;1;1;
61913;PMS5003;50095;53.336;-1.488;2022-10-03T05:07:36;0;0;
61913;PMS5003;50095;53.336;-1.488;2022-10-03T05:10:39;1;1;
61913;PMS5003;50095;53.336;-1.488;2022-10-03T05:13:21;1;1;
61913;PMS5003;50095;53.336;-1.488;2022-10-03T05:16:00;2;2;
61913;PMS5003;50095;53.336;-1.488;2022-10-03T05:18:36;1;1;
61913;PMS5003;50095;53.336;-1.488;2022-10-03T05:21:12;1;1;
61913;PMS5003;50095;53.336;-1.488;2022-10-03T05:23:44;2;2;
61913;PMS5003;50095;53.336;-1.488;2022-10-03T05:26:21;1;1;
61913;PMS5003;50095;53.336;-1.488;2022-10-03T05:28:57;1;1;
61913;PMS5003;50095;53.336;-1.488;2022-10-03T05:31:41;1;1;
61913;PMS5003;50095;53.336;-1.488;2022-10-03T05:34:20;3;3;
61913;PMS5003;50095;53.336;-1.488;2022-10-03T05:37:03;2;2;
61913;PMS5003;50095;53.336;-1.488;2022-10-03T05:39:44;2;2;
61913;PMS5003;50095;53.336;-1.488;2022-10-03T05:42:30;2;2;
61913;PMS5003;50095;53.336;-1.488;2022-10-03T05:45:03;1;1;
61913;PMS5003;50095;53.336;-1.488;2022-10-03T05:47:47;1;1;
61913;PMS5003;50095;53.336;-1.488;2022-10-03T05:52:35;0;0;
61913;PMS5003;50095;53.336;-1.488;2022-10-03T05:55:26;1;1;
61913;PMS5003;50095;53.336;-1.488;2022-10-03T05:58:01;1;1;
61913;PMS5003;50095;53.336;-1.488;2022-10-03T06:00:55;0;0;
61913;PMS5003;50095;53.336;-1.488;2022-10-03T06:04:29;1;1;
61913;PMS5003;50095;53.336;-1.488;2022-10-03T06:07:28;1;1;
61913;PMS5003;50095;53.336;-1.488;2022-10-03T06:11:17;2;2;
61913;PMS5003;50095;53.336;-1.488;2022-10-03T06:14:26;1;1;
61913;PMS5003;50095;53.336;-1.488;2022-10-03T06:17:02;2;1;
61913;PMS5003;50095;53.336;-1.488;2022-10-03T06:19:46;3;3;
61913;PMS5003;50095;53.336;-1.488;2022-10-03T06:22:33;3;2;
61913;PMS5003;50095;53.336;-1.488;2022-10-03T06:25:25;1;1;
61913;PMS5003;50095;53.336;-1.488;2022-10-03T06:28:19;2;2;
61913;PMS5003;50095;53.336;-1.488;2022-10-03T06:31:25;1;1;
61913;PMS5003;50095;53.336;-1.488;2022-10-03T06:34:21;1;1;
61913;PMS5003;50095;53.336;-1.488;2022-10-03T06:37:28;2;1;
61913;PMS5003;50095;53.336;-1.488;2022-10-03T06:42:27;1;1;
61913;PMS5003;50095;53.336;-1.488;2022-10-03T06:45:15;1;1;
61913;PMS5003;50095;53.336;-1.488;2022-10-03T06:47:38;1;1;
61913;PMS5003;50095;53.336;-1.488;2022-10-03T06:50:38;1;1;
61913;PMS5003;50095;53.336;-1.488;2022-10-03T06:54:00;3;2;
61913;PMS5003;50095;53.336;-1.488;2022-10-03T06:56:47;1;1;
61913;PMS5003;50095;53.336;-1.488;2022-10-03T06:59:36;2;2;
61913;PMS5003;50095;53.336;-1.488;2022-10-03T07:02:26;2;2;
61913;PMS5003;50095;53.336;-1.488;2022-10-03T07:05:52;3;3;
61913;PMS5003;50095;53.336;-1.488;2022-10-03T07:10:51;2;2;
61913;PMS5003;50095;53.336;-1.488;2022-10-03T07:13:34;2;2;
61913;PMS5003;50095;53.336;-1.488;2022-10-03T07:16:30;2;2;
61913;PMS5003;50095;53.336;-1.488;2022-10-03T07:19:20;2;2;
61913;PMS5003;50095;53.336;-1.488;2022-10-03T07:22:41;1;1;
61913;PMS5003;50095;53.336;-1.488;2022-10-03T07:26:36;3;3;
61913;PMS5003;50095;53.336;-1.488;2022-10-03T07:29:27;2;2;
61913;PMS5003;50095;53.336;-1.488;2022-10-03T07:32:16;1;1;
61913;PMS5003;50095;53.336;-1.488;2022-10-03T07:35:32;3;3;
61913;PMS5003;50095;53.336;-1.488;2022-10-03T07:38:16;2;2;
61913;PMS5003;50095;53.336;-1.488;2022-10-03T07:41:08;5;4;
61913;PMS5003;50095;53.336;-1.488;2022-10-03T07:43:52;2;2;
61913;PMS5003;50095;53.336;-1.488;2022-10-03T07:46:43;8;6;
61913;PMS5003;50095;53.336;-1.488;2022-10-03T07:49:36;8;8;
61913;PMS5003;50095;53.336;-1.488;2022-10-03T07:52:39;9;7;
61913;PMS5003;50095;53.336;-1.488;2022-10-03T07:55:20;9;9;
61913;PMS5003;50095;53.336;-1.488;2022-10-03T08:00:22;11;7;
61913;PMS5003;50095;53.336;-1.488;2022-10-03T08:02:59;9;7;
61913;PMS5003;50095;53.336;-1.488;2022-10-03T08:06:02;10;8;
61913;PMS5003;50095;53.336;-1.488;2022-10-03T08:09:51;13;11;
61913;PMS5003;50095;53.336;-1.488;2022-10-03T08:13:06;7;7;
61913;PMS5003;50095;53.336;-1.488;2022-10-03T08:15:54;10;7;
61913;PMS5003;50095;53.336;-1.488;2022-10-03T08:18:45;11;9;
61913;PMS5003;50095;53.336;-1.488;2022-10-03T08:21:28;7;7;
61913;PMS5003;50095;53.336;-1.488;2022-10-03T08:24:09;7;7;
61913;PMS5003;50095;53.336;-1.488;2022-10-03T08:26:54;11;10;
61913;PMS5003;50095;53.336;-1.488;2022-10-03T08:30:12;6;6;
61913;PMS5003;50095;53.336;-1.488;2022-10-03T08:32:50;8;8;
61913;PMS5003;50095;53.336;-1.488;2022-10-03T08:35:27;5;5;
61913;PMS5003;50095;53.336;-1.488;2022-10-03T08:38:30;10;9;
61913;PMS5003;50095;53.336;-1.488;2022-10-03T08:41:58;10;10;
61913;PMS5003;50095;53.336;-1.488;2022-10-03T08:46:40;9;9;
61913;PMS5003;50095;53.336;-1.488;2022-10-03T08:49:48;7;7;
61913;PMS5003;50095;53.336;-1.488;2022-10-03T08:52:50;6;6;
61913;PMS5003;50095;53.336;-1.488;2022-10-03T08:55:43;8;6;
61913;PMS5003;50095;53.336;-1.488;2022-10-03T08:58:25;8;7;
61913;PMS5003;50095;53.336;-1.488;2022-10-03T09:01:16;9;8;
61913;PMS5003;50095;53.336;-1.488;2022-10-03T09:05:02;7;5;
61913;PMS5003;50095;53.336;-1.488;2022-10-03T09:08:28;7;7;
61913;PMS5003;50095;53.336;-1.488;2022-10-03T09:11:27;6;6;
61913;PMS5003;50095;53.336;-1.488;2022-10-03T09:14:30;5;5;
61913;PMS5003;50095;53.336;-1.488;2022-10-03T09:17:44;6;6;
61913;PMS5003;50095;53.336;-1.488;2022-10-03T09:20:49;8;5;
61913;PMS5003;50095;53.336;-1.488;2022-10-03T09:25:53;5;5;
61913;PMS5003;50095;53.336;-1.488;2022-10-03T09:28:48;5;4;
61913;PMS5003;50095;53.336;-1.488;2022-10-03T09:32:04;5;5;
61913;PMS5003;50095;53.336;-1.488;2022-10-03T09:34:37;5;5;
61913;PMS5003;50095;53.336;-1.488;2022-10-03T09:37:46;5;5;
61913;PMS5003;50095;53.336;-1.488;2022-10-03T09:40:47;5;5;
61913;PMS5003;50095;53.336;-1.488;2022-10-03T09:45:05;7;6;
61913;PMS5003;50095;53.336;-1.488;2022-10-03T09:47:46;8;5;
61913;PMS5003;50095;53.336;-1.488;2022-10-03T09:50:41;4;4;
61913;PMS5003;50095;53.336;-1.488;2022-10-03T09:53:36;5;4;
61913;PMS5003;50095;53.336;-1.488;2022-10-03T09:55:55;5;5;
61913;PMS5003;50095;53.336;-1.488;2022-10-03T09:58:52;3;3;
61913;PMS5003;50095;53.336;-1.488;2022-10-03T10:01:35;4;4;
61913;PMS5003;50095;53.336;-1.488;2022-10-03T10:04:19;5;4;
61913;PMS5003;50095;53.336;-1.488;2022-10-03T10:07:14;4;4;
61913;PMS5003;50095;53.336;-1.488;2022-10-03T10:11:12;8;5;
61913;PMS5003;50095;53.336;-1.488;2022-10-03T10:13:58;2;2;
61913;PMS5003;50095;53.336;-1.488;2022-10-03T10:17:05;5;4;
61913;PMS5003;50095;53.336;-1.488;2022-10-03T10:19:26;4;3;
61913;PMS5003;50095;53.336;-1.488;2022-10-03T10:22:09;3;3;
61913;PMS5003;50095;53.336;-1.488;2022-10-03T10:27:36;5;4;
61913;PMS5003;50095;53.336;-1.488;2022-10-03T10:30:02;5;4;
61913;PMS5003;50095;53.336;-1.488;2022-10-03T10:32:53;3;3;
61913;PMS5003;50095;53.336;-1.488;2022-10-03T10:39:52;3;3;
61913;PMS5003;50095;53.336;-1.488;2022-10-03T10:43:02;5;4;
61913;PMS5003;50095;53.336;-1.488;2022-10-03T10:46:27;4;4;
61913;PMS5003;50095;53.336;-1.488;2022-10-03T10:50:24;2;2;
61913;PMS5003;50095;53.336;-1.488;2022-10-03T10:55:58;2;2;
61913;PMS5003;50095;53.336;-1.488;2022-10-03T11:01:02;5;5;
61913;PMS5003;50095;53.336;-1.488;2022-10-03T11:04:04;4;4;
61913;PMS5003;50095;53.336;-1.488;2022-10-03T11:07:09;3;3;
61913;PMS5003;50095;53.336;-1.488;2022-10-03T11:10:10;2;2;
61913;PMS5003;50095;53.336;-1.488;2022-10-03T11:13:36;3;3;
61913;PMS5003;50095;53.336;-1.488;2022-10-03T11:17:04;1;1;
61913;PMS5003;50095;53.336;-1.488;2022-10-03T11:20:41;2;2;
61913;PMS5003;50095;53.336;-1.488;2022-10-03T11:23:46;4;4;
61913;PMS5003;50095;53.336;-1.488;2022-10-03T11:27:00;3;3;
61913;PMS5003;50095;53.336;-1.488;2022-10-03T11:31:39;3;3;
61913;PMS5003;50095;53.336;-1.488;2022-10-03T11:34:30;4;4;
61913;PMS5003;50095;53.336;-1.488;2022-10-03T11:37:23;5;4;
61913;PMS5003;50095;53.336;-1.488;2022-10-03T11:40:07;4;4;
61913;PMS5003;50095;53.336;-1.488;2022-10-03T11:42:54;3;3;
61913;PMS5003;50095;53.336;-1.488;2022-10-03T11:45:32;5;3;
61913;PMS5003;50095;53.336;-1.488;2022-10-03T11:48:11;3;3;
61913;PMS5003;50095;53.336;-1.488;2022-10-03T11:50:52;4;3;
61913;PMS5003;50095;53.336;-1.488;2022-10-03T11:53:27;6;6;
61913;PMS5003;50095;53.336;-1.488;2022-10-03T11:56:07;4;4;
61913;PMS5003;50095;53.336;-1.488;2022-10-03T11:58:50;4;3;
61913;PMS5003;50095;53.336;-1.488;2022-10-03T12:01:28;4;4;
61913;PMS5003;50095;53.336;-1.488;2022-10-03T12:04:14;3;3;
61913;PMS5003;50095;53.336;-1.488;2022-10-03T12:06:56;2;2;
61913;PMS5003;50095;53.336;-1.488;2022-10-03T12:09:28;4;4;
61913;PMS5003;50095;53.336;-1.488;2022-10-03T12:12:05;4;4;
61913;PMS5003;50095;53.336;-1.488;2022-10-03T12:14:42;3;2;
61913;PMS5003;50095;53.336;-1.488;2022-10-03T12:17:14;3;1;
61913;PMS5003;50095;53.336;-1.488;2022-10-03T12:19:51;3;3;
61913;PMS5003;50095;53.336;-1.488;2022-10-03T12:22:31;4;4;
61913;PMS5003;50095;53.336;-1.488;2022-10-03T12:25:17;4;4;
61913;PMS5003;50095;53.336;-1.488;2022-10-03T12:27:49;2;2;
61913;PMS5003;50095;53.336;-1.488;2022-10-03T12:30:26;3;3;
61913;PMS5003;50095;53.336;-1.488;2022-10-03T12:33:02;6;6;
61913;PMS5003;50095;53.336;-1.488;2022-10-03T12:35:44;2;2;
61913;PMS5003;50095;53.336;-1.488;2022-10-03T12:38:22;4;3;
61913;PMS5003;50095;53.336;-1.488;2022-10-03T12:41:01;4;4;
61913;PMS5003;50095;53.336;-1.488;2022-10-03T12:43:40;3;2;
61913;PMS5003;50095;53.336;-1.488;2022-10-03T12:46:25;2;2;
61913;PMS5003;50095;53.336;-1.488;2022-10-03T12:49:02;4;4;
61913;PMS5003;50095;53.336;-1.488;2022-10-03T12:51:41;3;3;
61913;PMS5003;50095;53.336;-1.488;2022-10-03T12:54:24;1;1;
61913;PMS5003;50095;53.336;-1.488;2022-10-03T12:57:15;2;1;
61913;PMS5003;50095;53.336;-1.488;2022-10-03T13:00:04;0;0;
61913;PMS5003;50095;53.336;-1.488;2022-10-03T13:02:38;3;3;
61913;PMS5003;50095;53.336;-1.488;2022-10-03T13:05:53;2;2;
61913;PMS5003;50095;53.336;-1.488;2022-10-03T13:08:41;2;2;
61913;PMS5003;50095;53.336;-1.488;2022-10-03T13:11:22;2;2;
61913;PMS5003;50095;53.336;-1.488;2022-10-03T13:14:02;2;2;
61913;PMS5003;50095;53.336;-1.488;2022-10-03T13:16:39;3;3;
61913;PMS5003;50095;53.336;-1.488;2022-10-03T13:19:16;2;2;
61913;PMS5003;50095;53.336;-1.488;2022-10-03T13:21:51;3;3;
61913;PMS5003;50095;53.336;-1.488;2022-10-03T13:24:26;2;2;
61913;PMS5003;50095;53.336;-1.488;2022-10-03T13:27:01;2;2;
61913;PMS5003;50095;53.336;-1.488;2022-10-03T13:29:37;3;3;
61913;PMS5003;50095;53.336;-1.488;2022-10-03T13:32:10;6;5;
61913;PMS5003;50095;53.336;-1.488;2022-10-03T13:34:55;3;3;
61913;PMS5003;50095;53.336;-1.488;2022-10-03T13:37:30;3;3;
61913;PMS5003;50095;53.336;-1.488;2022-10-03T13:40:11;5;5;
61913;PMS5003;50095;53.336;-1.488;2022-10-03T13:42:44;3;2;
61913;PMS5003;50095;53.336;-1.488;2022-10-03T13:45:13;2;2;
61913;PMS5003;50095;53.336;-1.488;2022-10-03T13:47:45;1;1;
61913;PMS5003;50095;53.336;-1.488;2022-10-03T13:50:17;4;4;
61913;PMS5003;50095;53.336;-1.488;2022-10-03T13:52:51;4;3;
61913;PMS5003;50095;53.336;-1.488;2022-10-03T13:55:26;3;3;
61913;PMS5003;50095;53.336;-1.488;2022-10-03T13:58:11;2;2;
61913;PMS5003;50095;53.336;-1.488;2022-10-03T14:01:01;1;1;
61913;PMS5003;50095;53.336;-1.488;2022-10-03T14:03:39;6;3;
61913;PMS5003;50095;53.336;-1.488;2022-10-03T14:06:17;3;3;
61913;PMS5003;50095;53.336;-1.488;2022-10-03T14:08:59;3;2;
61913;PMS5003;50095;53.336;-1.488;2022-10-03T14:11:46;2;2;
61913;PMS5003;50095;53.336;-1.488;2022-10-03T14:14:26;2;2;
61913;PMS5003;50095;53.336;-1.488;2022-10-03T14:17:11;4;4;
61913;PMS5003;50095;53.336;-1.488;2022-10-03T14:19:50;4;4;
61913;PMS5003;50095;53.336;-1.488;2022-10-03T14:22:33;3;3;
61913;PMS5003;50095;53.336;-1.488;2022-10-03T14:25:10;7;2;
61913;PMS5003;50095;53.336;-1.488;2022-10-03T14:27:48;2;2;
61913;PMS5003;50095;53.336;-1.488;2022-10-03T14:30:18;5;4;
61913;PMS5003;50095;53.336;-1.488;2022-10-03T14:32:51;2;2;
61913;PMS5003;50095;53.336;-1.488;2022-10-03T14:35:27;2;2;
61913;PMS5003;50095;53.336;-1.488;2022-10-03T14:38:02;1;1;
61913;PMS5003;50095;53.336;-1.488;2022-10-03T14:40:39;3;3;
61913;PMS5003;50095;53.336;-1.488;2022-10-03T14:43:17;2;2;
61913;PMS5003;50095;53.336;-1.488;2022-10-03T14:45:56;3;1;
61913;PMS5003;50095;53.336;-1.488;2022-10-03T14:48:28;3;3;
61913;PMS5003;50095;53.336;-1.488;2022-10-03T14:51:02;3;3;
61913;PMS5003;50095;53.336;-1.488;2022-10-03T14:53:38;4;3;
61913;PMS5003;50095;53.336;-1.488;2022-10-03T14:56:13;3;3;
61913;PMS5003;50095;53.336;-1.488;2022-10-03T14:58:45;2;2;
61913;PMS5003;50095;53.336;-1.488;2022-10-03T15:01:16;2;2;
61913;PMS5003;50095;53.336;-1.488;2022-10-03T15:03:51;2;2;
61913;PMS5003;50095;53.336;-1.488;2022-10-03T15:06:33;3;3;
61913;PMS5003;50095;53.336;-1.488;2022-10-03T15:09:08;3;3;
61913;PMS5003;50095;53.336;-1.488;2022-10-03T15:11:43;6;4;
61913;PMS5003;50095;53.336;-1.488;2022-10-03T15:14:14;2;2;
61913;PMS5003;50095;53.336;-1.488;2022-10-03T15:16:43;2;2;
61913;PMS5003;50095;53.336;-1.488;2022-10-03T15:19:16;5;5;
61913;PMS5003;50095;53.336;-1.488;2022-10-03T15:21:46;6;3;
61913;PMS5003;50095;53.336;-1.488;2022-10-03T15:24:18;3;3;
61913;PMS5003;50095;53.336;-1.488;2022-10-03T15:26:49;4;4;
61913;PMS5003;50095;53.336;-1.488;2022-10-03T15:29:20;3;1;
61913;PMS5003;50095;53.336;-1.488;2022-10-03T15:31:50;3;3;
61913;PMS5003;50095;53.336;-1.488;2022-10-03T15:34:20;3;3;
61913;PMS5003;50095;53.336;-1.488;2022-10-03T15:36:51;2;2;
61913;PMS5003;50095;53.336;-1.488;2022-10-03T15:39:24;2;2;
61913;PMS5003;50095;53.336;-1.488;2022-10-03T15:41:54;2;2;
61913;PMS5003;50095;53.336;-1.488;2022-10-03T15:44:29;3;3;
61913;PMS5003;50095;53.336;-1.488;2022-10-03T15:46:59;1;1;
61913;PMS5003;50095;53.336;-1.488;2022-10-03T15:49:32;3;3;
61913;PMS5003;50095;53.336;-1.488;2022-10-03T15:52:06;2;2;
61913;PMS5003;50095;53.336;-1.488;2022-10-03T15:54:40;3;3;
61913;PMS5003;50095;53.336;-1.488;2022-10-03T15:57:16;4;4;
61913;PMS5003;50095;53.336;-1.488;2022-10-03T15:59:51;3;3;
61913;PMS5003;50095;53.336;-1.488;2022-10-03T16:02:24;1;1;
61913;PMS5003;50095;53.336;-1.488;2022-10-03T16:04:57;3;3;
61913;PMS5003;50095;53.336;-1.488;2022-10-03T16:07:27;3;3;
61913;PMS5003;50095;53.336;-1.488;2022-10-03T16:10:06;3;3;
61913;PMS5003;50095;53.336;-1.488;2022-10-03T16:12:45;3;1;
61913;PMS5003;50095;53.336;-1.488;2022-10-03T16:15:19;2;2;
61913;PMS5003;50095;53.336;-1.488;2022-10-03T16:17:49;4;4;
61913;PMS5003;50095;53.336;-1.488;2022-10-03T16:20:21;5;3;
61913;PMS5003;50095;53.336;-1.488;2022-10-03T16:22:53;6;3;
61913;PMS5003;50095;53.336;-1.488;2022-10-03T16:25:23;2;2;
61913;PMS5003;50095;53.336;-1.488;2022-10-03T16:27:53;5;4;
61913;PMS5003;50095;53.336;-1.488;2022-10-03T16:30:25;2;2;
61913;PMS5003;50095;53.336;-1.488;2022-10-03T16:32:59;2;2;
61913;PMS5003;50095;53.336;-1.488;2022-10-03T16:35:36;6;6;
61913;PMS5003;50095;53.336;-1.488;2022-10-03T16:38:15;3;3;
61913;PMS5003;50095;53.336;-1.488;2022-10-03T16:40:54;3;3;
61913;PMS5003;50095;53.336;-1.488;2022-10-03T16:43:23;6;5;
61913;PMS5003;50095;53.336;-1.488;2022-10-03T16:45:52;1;1;
61913;PMS5003;50095;53.336;-1.488;2022-10-03T16:48:22;3;3;
61913;PMS5003;50095;53.336;-1.488;2022-10-03T16:50:53;3;3;
61913;PMS5003;50095;53.336;-1.488;2022-10-03T16:53:20;4;4;
61913;PMS5003;50095;53.336;-1.488;2022-10-03T16:55:49;2;2;
61913;PMS5003;50095;53.336;-1.488;2022-10-03T16:58:21;2;2;
61913;PMS5003;50095;53.336;-1.488;2022-10-03T17:00:53;1;1;
61913;PMS5003;50095;53.336;-1.488;2022-10-03T17:03:25;2;2;
61913;PMS5003;50095;53.336;-1.488;2022-10-03T17:05:57;3;2;
61913;PMS5003;50095;53.336;-1.488;2022-10-03T17:08:26;4;4;
61913;PMS5003;50095;53.336;-1.488;2022-10-03T17:10:58;2;2;
61913;PMS5003;50095;53.336;-1.488;2022-10-03T17:13:34;1;1;
61913;PMS5003;50095;53.336;-1.488;2022-10-03T17:16:10;3;2;
61913;PMS5003;50095;53.336;-1.488;2022-10-03T17:18:42;3;3;
61913;PMS5003;50095;53.336;-1.488;2022-10-03T17:21:18;3;3;
61913;PMS5003;50095;53.336;-1.488;2022-10-03T17:23:54;4;4;
61913;PMS5003;50095;53.336;-1.488;2022-10-03T17:26:32;3;3;
61913;PMS5003;50095;53.336;-1.488;2022-10-03T17:29:05;3;3;
61913;PMS5003;50095;53.336;-1.488;2022-10-03T17:31:40;5;5;
61913;PMS5003;50095;53.336;-1.488;2022-10-03T17:34:12;5;3;
61913;PMS5003;50095;53.336;-1.488;2022-10-03T17:36:49;3;3;
61913;PMS5003;50095;53.336;-1.488;2022-10-03T17:39:30;4;4;
61913;PMS5003;50095;53.336;-1.488;2022-10-03T17:42:05;4;3;
61913;PMS5003;50095;53.336;-1.488;2022-10-03T17:44:44;3;3;
61913;PMS5003;50095;53.336;-1.488;2022-10-03T17:47:23;3;2;
61913;PMS5003;50095;53.336;-1.488;2022-10-03T17:49:59;3;3;
61913;PMS5003;50095;53.336;-1.488;2022-10-03T17:52:32;3;3;
61913;PMS5003;50095;53.336;-1.488;2022-10-03T17:55:06;3;3;
61913;PMS5003;50095;53.336;-1.488;2022-10-03T17:57:39;6;5;
61913;PMS5003;50095;53.336;-1.488;2022-10-03T18:00:16;5;4;
61913;PMS5003;50095;53.336;-1.488;2022-10-03T18:02:49;4;4;
61913;PMS5003;50095;53.336;-1.488;2022-10-03T18:05:23;3;3;
61913;PMS5003;50095;53.336;-1.488;2022-10-03T18:07:53;3;3;
61913;PMS5003;50095;53.336;-1.488;2022-10-03T18:10:22;5;4;
61913;PMS5003;50095;53.336;-1.488;2022-10-03T18:12:52;4;4;
61913;PMS5003;50095;53.336;-1.488;2022-10-03T18:15:32;4;3;
61913;PMS5003;50095;53.336;-1.488;2022-10-03T18:18:17;6;4;
61913;PMS5003;50095;53.336;-1.488;2022-10-03T18:22:05;3;3;
61913;PMS5003;50095;53.336;-1.488;2022-10-03T18:24:41;3;3;
61913;PMS5003;50095;53.336;-1.488;2022-10-03T18:27:25;4;3;
61913;PMS5003;50095;53.336;-1.488;2022-10-03T18:30:13;4;3;
61913;PMS5003;50095;53.336;-1.488;2022-10-03T18:32:45;2;2;
61913;PMS5003;50095;53.336;-1.488;2022-10-03T18:35:15;5;4;
61913;PMS5003;50095;53.336;-1.488;2022-10-03T18:37:52;4;3;
61913;PMS5003;50095;53.336;-1.488;2022-10-03T18:40:27;4;4;
61913;PMS5003;50095;53.336;-1.488;2022-10-03T18:42:56;4;4;
61913;PMS5003;50095;53.336;-1.488;2022-10-03T18:45:26;4;3;
61913;PMS5003;50095;53.336;-1.488;2022-10-03T18:47:58;4;4;
61913;PMS5003;50095;53.336;-1.488;2022-10-03T18:50:34;4;4;
61913;PMS5003;50095;53.336;-1.488;2022-10-03T18:53:16;3;3;
61913;PMS5003;50095;53.336;-1.488;2022-10-03T18:55:50;4;4;
61913;PMS5003;50095;53.336;-1.488;2022-10-03T18:58:23;2;2;
61913;PMS5003;50095;53.336;-1.488;2022-10-03T19:00:55;4;4;
61913;PMS5003;50095;53.336;-1.488;2022-10-03T19:03:29;4;4;